createdAt,value
2018-12-24T00:05:18.624Z,72.86
2018-12-24T00:07:48.380Z,72.80
2018-12-24T00:10:18.025Z,72.74
2018-12-24T00:12:47.641Z,72.59
2018-12-24T00:15:17.287Z,72.61
2018-12-24T00:17:47.233Z,72.56
2018-12-24T00:20:16.892Z,72.56
2018-12-24T00:23:00.961Z,72.59
2018-12-24T00:25:18.178Z,72.50
2018-12-24T00:27:47.806Z,72.37
2018-12-24T00:30:56.942Z,72.27
2018-12-24T00:33:26.579Z,72.11
2018-12-24T00:35:56.449Z,72.15
2018-12-24T00:39:05.277Z,71.78
2018-12-24T00:41:34.901Z,71.90
2018-12-24T00:44:04.525Z,71.94
2018-12-24T00:46:34.230Z,71.89
2018-12-24T00:51:54.633Z,72.05
2018-12-24T00:54:26.518Z,71.97
2018-12-24T00:57:01.336Z,71.73
2018-12-24T00:59:43.526Z,71.50
2018-12-24T01:05:14.824Z,71.30
2018-12-24T01:07:34.006Z,71.19
2018-12-24T01:10:03.642Z,71.03
2018-12-24T01:12:33.342Z,71.06
2018-12-24T01:15:03.350Z,71.05
2018-12-24T01:17:53.575Z,70.93
2018-12-24T01:23:06.360Z,71.09
2018-12-24T01:31:10.059Z,71.01
2018-12-24T01:33:53.941Z,70.97
2018-12-24T01:36:13.638Z,70.97
2018-12-24T01:38:45.250Z,70.96
2018-12-24T01:41:14.868Z,70.93
2018-12-24T01:43:51.336Z,70.82
2018-12-24T01:46:21.328Z,70.86
2018-12-24T01:49:01.345Z,70.68
2018-12-24T01:51:31.880Z,70.70
2018-12-24T01:54:01.635Z,70.87
2018-12-24T01:56:31.449Z,70.80
2018-12-24T01:59:03.479Z,71.18
2018-12-24T02:01:33.278Z,71.22
2018-12-24T02:04:03.037Z,71.31
2018-12-24T02:06:33.057Z,71.44
2018-12-24T02:11:58.137Z,71.64
2018-12-24T02:14:27.821Z,71.78
2018-12-24T02:16:57.473Z,72.09
2018-12-24T02:19:27.237Z,72.24
2018-12-24T02:21:57.184Z,71.71
2018-12-24T02:24:26.822Z,71.81
2018-12-24T02:26:56.426Z,71.77
2018-12-24T02:29:26.061Z,71.62
2018-12-24T02:31:55.694Z,71.59
2018-12-24T02:34:25.601Z,71.80
2018-12-24T02:36:55.241Z,71.43
2018-12-24T02:39:25.113Z,71.67
2018-12-24T02:41:54.762Z,71.54
2018-12-24T02:44:24.505Z,71.64
2018-12-24T02:46:54.159Z,71.75
2018-12-24T02:49:23.764Z,71.93
2018-12-24T02:51:53.412Z,72.06
2018-12-24T02:54:23.021Z,72.09
2018-12-24T02:56:52.658Z,72.24
2018-12-24T02:59:22.268Z,72.36
2018-12-24T03:01:51.929Z,72.05
2018-12-24T03:04:21.554Z,72.77
2018-12-24T03:06:51.156Z,73.01
2018-12-24T03:09:21.189Z,72.93
2018-12-24T03:11:51.169Z,72.97
2018-12-24T03:14:20.793Z,72.88
2018-12-24T03:16:50.444Z,73.12
2018-12-24T03:19:20.084Z,73.51
2018-12-24T03:21:49.696Z,74.01
2018-12-24T03:24:19.413Z,74.84
2018-12-24T03:26:49.028Z,75.46
2018-12-24T03:29:19.060Z,75.96
2018-12-24T03:31:49.050Z,76.47
2018-12-24T03:34:18.686Z,76.90
2018-12-24T03:36:48.299Z,77.27
2018-12-24T03:39:17.959Z,77.63
2018-12-24T03:41:47.570Z,77.87
2018-12-24T03:44:17.187Z,78.47
2018-12-24T03:46:46.950Z,76.94
2018-12-24T03:49:16.562Z,71.18
2018-12-24T03:51:46.518Z,68.75
2018-12-24T03:54:16.638Z,68.26
2018-12-24T03:56:46.272Z,69.43
2018-12-24T03:59:16.264Z,71.39
2018-12-24T04:01:46.076Z,73.37
2018-12-24T04:04:15.680Z,74.00
2018-12-24T04:06:45.340Z,75.13
2018-12-24T04:09:14.945Z,75.60
2018-12-24T04:11:44.595Z,75.36
2018-12-24T04:14:14.215Z,75.96
2018-12-24T04:16:43.829Z,76.11
2018-12-24T04:19:13.836Z,76.58
2018-12-24T04:21:43.458Z,76.59
2018-12-24T04:24:13.459Z,76.71
2018-12-24T04:26:43.072Z,76.97
2018-12-24T04:29:12.701Z,76.70
2018-12-24T04:31:42.315Z,76.60
2018-12-24T04:34:12.298Z,76.07
2018-12-24T04:36:42.265Z,76.28
2018-12-24T04:39:11.895Z,75.67
2018-12-24T04:41:41.512Z,75.26
2018-12-24T04:44:11.578Z,74.82
2018-12-24T04:46:41.183Z,74.61
2018-12-24T04:49:10.820Z,73.74
2018-12-24T04:51:40.446Z,73.64
2018-12-24T04:54:10.054Z,73.24
2018-12-24T04:56:39.990Z,73.26
2018-12-24T04:59:09.599Z,73.48
2018-12-24T05:01:39.228Z,73.13
2018-12-24T05:04:08.850Z,73.37
2018-12-24T05:06:38.481Z,72.45
2018-12-24T05:09:08.582Z,73.19
2018-12-24T05:11:38.274Z,73.12
2018-12-24T05:14:07.884Z,72.35
2018-12-24T05:16:37.523Z,72.39
2018-12-24T05:19:07.140Z,72.72
2018-12-24T05:21:36.772Z,72.35
2018-12-24T05:24:06.379Z,72.22
2018-12-24T05:26:36.437Z,71.93
2018-12-24T05:29:06.050Z,72.35
2018-12-24T05:31:35.656Z,72.45
2018-12-24T05:34:05.285Z,72.34
2018-12-24T05:36:34.889Z,72.51
2018-12-24T05:41:59.444Z,72.16
2018-12-24T05:44:29.088Z,72.31
2018-12-24T05:46:58.717Z,71.61
2018-12-24T05:49:28.796Z,70.65
2018-12-24T05:51:58.556Z,70.97
2018-12-24T05:54:28.178Z,72.05
2018-12-24T05:56:58.827Z,71.48
2018-12-24T05:59:28.748Z,71.19
2018-12-24T06:01:58.418Z,70.99
2018-12-24T06:04:28.096Z,72.16
2018-12-24T06:06:57.778Z,72.18
2018-12-24T06:09:27.394Z,71.73
2018-12-24T06:11:57.048Z,72.19
2018-12-24T06:14:27.056Z,72.04
2018-12-24T06:16:56.710Z,71.71
2018-12-24T06:19:26.326Z,71.95
2018-12-24T06:21:55.989Z,71.89
2018-12-24T06:24:25.627Z,72.27
2018-12-24T06:26:55.339Z,72.81
2018-12-24T06:29:24.987Z,72.01
2018-12-24T06:31:55.177Z,72.26
2018-12-24T06:34:25.103Z,73.33
2018-12-24T06:36:54.757Z,71.30
2018-12-24T06:39:24.601Z,72.29
2018-12-24T06:41:54.285Z,71.34
2018-12-24T06:44:24.230Z,71.43
2018-12-24T06:46:53.953Z,70.93
2018-12-24T06:49:25.862Z,71.93
2018-12-24T06:51:55.824Z,72.19
2018-12-24T06:54:25.463Z,71.52
2018-12-24T06:56:55.088Z,71.92
2018-12-24T06:59:36.930Z,71.58
2018-12-24T07:01:56.422Z,70.58
2018-12-24T07:04:26.511Z,70.39
2018-12-24T07:06:56.118Z,70.92
2018-12-24T07:09:46.168Z,70.65
2018-12-24T07:12:15.912Z,71.01
2018-12-24T07:14:45.612Z,71.72
2018-12-24T07:17:15.236Z,71.38
2018-12-24T07:19:57.074Z,71.22
2018-12-24T07:25:06.614Z,71.59
2018-12-24T07:27:36.266Z,72.08
2018-12-24T07:30:06.295Z,72.37
2018-12-24T07:32:36.257Z,72.91
2018-12-24T07:35:05.915Z,72.59
2018-12-24T07:37:35.556Z,72.55
2018-12-24T07:40:05.700Z,73.15
2018-12-24T07:42:35.545Z,73.02
2018-12-24T07:45:05.185Z,72.68
2018-12-24T07:47:34.856Z,72.68
2018-12-24T07:50:04.489Z,73.52
2018-12-24T07:52:34.147Z,73.07
2018-12-24T07:55:04.138Z,73.34
2018-12-24T07:57:55.126Z,73.70
2018-12-24T08:00:24.761Z,73.22
2018-12-24T08:02:54.441Z,72.98
2018-12-24T08:05:24.189Z,72.69
2018-12-24T08:07:54.175Z,71.64
2018-12-24T08:10:23.803Z,71.19
2018-12-24T08:12:54.197Z,71.09
2018-12-24T08:15:23.901Z,70.87
2018-12-24T08:20:49.034Z,71.11
2018-12-24T08:23:18.752Z,71.61
2018-12-24T08:25:48.377Z,71.09
2018-12-24T08:28:17.997Z,71.98
2018-12-24T08:30:47.645Z,71.89
2018-12-24T08:33:17.258Z,72.47
2018-12-24T08:35:46.941Z,72.53
2018-12-24T08:38:16.928Z,72.39
2018-12-24T08:40:46.621Z,72.37
2018-12-24T08:43:16.258Z,72.39
2018-12-24T08:45:45.930Z,72.39
2018-12-24T08:48:15.589Z,72.44
2018-12-24T08:50:45.235Z,72.69
2018-12-24T08:53:15.263Z,73.30
2018-12-24T08:55:45.792Z,73.03
2018-12-24T08:58:15.403Z,73.11
2018-12-24T09:00:45.049Z,73.40
2018-12-24T09:03:15.028Z,73.51
2018-12-24T09:05:44.776Z,73.60
2018-12-24T09:08:14.512Z,73.29
2018-12-24T09:10:44.143Z,73.39
2018-12-24T09:13:13.858Z,73.50
2018-12-24T09:15:43.496Z,73.21
2018-12-24T09:18:13.136Z,72.67
2018-12-24T09:20:42.794Z,72.77
2018-12-24T09:23:12.422Z,72.80
2018-12-24T09:25:42.509Z,72.51
2018-12-24T09:28:12.188Z,72.42
2018-12-24T09:30:47.498Z,72.98
2018-12-24T09:33:17.177Z,73.39
2018-12-24T09:35:47.086Z,73.75
2018-12-24T09:38:16.697Z,73.27
2018-12-24T09:40:46.340Z,73.39
2018-12-24T09:43:15.979Z,73.13
2018-12-24T09:45:45.705Z,73.44
2018-12-24T09:48:15.414Z,73.42
2018-12-24T09:50:45.057Z,73.49
2018-12-24T09:53:15.057Z,73.19
2018-12-24T09:55:44.706Z,73.18
2018-12-24T09:58:14.318Z,73.86
2018-12-24T10:00:44.277Z,74.03
2018-12-24T10:03:53.647Z,73.68
2018-12-24T10:06:27.886Z,73.65
2018-12-24T10:08:58.176Z,73.19
2018-12-24T10:11:28.181Z,73.38
2018-12-24T10:13:58.537Z,73.23
2018-12-24T10:16:28.174Z,73.20
2018-12-24T10:18:57.791Z,72.92
2018-12-24T10:21:27.870Z,73.19
2018-12-24T10:23:57.894Z,73.07
2018-12-24T10:26:27.488Z,73.39
2018-12-24T10:28:57.460Z,72.95
2018-12-24T10:31:27.092Z,72.82
2018-12-24T10:33:56.729Z,72.32
2018-12-24T10:36:26.342Z,72.56
2018-12-24T10:38:56.342Z,71.83
2018-12-24T10:41:46.157Z,71.56
2018-12-24T10:44:15.803Z,71.86
2018-12-24T10:46:45.817Z,71.79
2018-12-24T10:49:15.457Z,71.17
2018-12-24T10:51:45.069Z,71.22
2018-12-24T10:54:14.771Z,71.17
2018-12-24T10:56:44.394Z,70.71
2018-12-24T10:59:14.415Z,70.54
2018-12-24T11:01:44.755Z,70.25
2018-12-24T11:04:15.687Z,70.06
2018-12-24T11:06:45.449Z,69.58
2018-12-24T11:09:15.128Z,69.76
2018-12-24T11:11:44.786Z,69.60
2018-12-24T11:14:14.428Z,69.40
2018-12-24T11:16:44.197Z,69.81
2018-12-24T11:19:13.969Z,70.10
2018-12-24T11:21:43.596Z,69.76
2018-12-24T11:24:13.531Z,69.85
2018-12-24T11:26:43.162Z,69.35
2018-12-24T11:29:31.745Z,69.75
2018-12-24T11:32:01.509Z,69.48
2018-12-24T11:34:31.060Z,69.47
2018-12-24T11:37:00.704Z,69.53
2018-12-24T11:39:30.329Z,68.28
2018-12-24T11:41:59.984Z,68.57
2018-12-24T11:44:29.786Z,68.07
2018-12-24T11:47:38.568Z,68.73
2018-12-24T11:50:08.569Z,68.67
2018-12-24T11:52:38.195Z,68.52
2018-12-24T11:55:09.540Z,68.65
2018-12-24T11:57:39.543Z,68.20
2018-12-24T12:00:09.302Z,68.27
2018-12-24T12:02:57.926Z,68.72
2018-12-24T12:05:27.952Z,68.62
2018-12-24T12:07:57.564Z,68.79
2018-12-24T12:10:27.362Z,68.96
2018-12-24T12:12:57.077Z,68.92
2018-12-24T12:15:26.758Z,68.85
2018-12-24T12:17:56.401Z,68.97
2018-12-24T12:20:26.059Z,69.11
2018-12-24T12:22:55.734Z,69.12
2018-12-24T12:25:25.390Z,69.43
2018-12-24T12:27:55.039Z,69.50
2018-12-24T12:30:24.694Z,69.54
2018-12-24T12:32:54.333Z,69.80
2018-12-24T12:35:24.432Z,69.66
2018-12-24T12:37:57.254Z,69.23
2018-12-24T12:40:27.335Z,68.36
2018-12-24T12:42:58.651Z,68.39
2018-12-24T12:45:28.399Z,68.38
2018-12-24T12:47:58.036Z,67.45
2018-12-24T12:50:46.617Z,67.29
2018-12-24T12:53:16.254Z,66.88
2018-12-24T12:55:46.378Z,66.86
2018-12-24T12:58:23.314Z,66.37
2018-12-24T13:00:53.129Z,65.23
2018-12-24T13:03:22.759Z,65.48
2018-12-24T13:05:52.939Z,64.73
2018-12-24T13:08:22.635Z,64.79
2018-12-24T13:10:52.254Z,64.71
2018-12-24T13:13:21.925Z,64.92
2018-12-24T13:18:46.926Z,64.91
2018-12-24T13:21:17.288Z,65.41
2018-12-24T13:23:47.502Z,65.65
2018-12-24T13:26:17.123Z,66.28
2018-12-24T13:29:05.874Z,66.59
2018-12-24T13:31:35.533Z,66.40
2018-12-24T13:34:08.246Z,66.77
2018-12-24T13:36:56.784Z,66.47
2018-12-24T13:39:26.398Z,66.31
2018-12-24T13:41:56.339Z,65.24
2018-12-24T13:44:25.987Z,64.80
2018-12-24T13:46:55.618Z,64.94
2018-12-24T13:49:25.241Z,64.70
2018-12-24T13:51:54.878Z,63.84
2018-12-24T13:54:24.487Z,64.20
2018-12-24T13:56:54.465Z,64.77
2018-12-24T13:59:24.100Z,64.11
2018-12-24T14:01:54.100Z,64.50
2018-12-24T14:04:23.824Z,64.70
2018-12-24T14:06:53.470Z,64.54
2018-12-24T14:12:14.880Z,64.00
2018-12-24T14:14:44.963Z,64.06
2018-12-24T14:17:14.699Z,63.61
2018-12-24T14:19:44.687Z,62.43
2018-12-24T14:22:14.325Z,61.66
2018-12-24T14:24:43.959Z,60.73
2018-12-24T14:27:13.563Z,61.20
2018-12-24T14:29:45.595Z,61.31
2018-12-24T14:32:15.326Z,62.79
2018-12-24T14:34:44.966Z,63.57
2018-12-24T14:37:14.574Z,64.74
2018-12-24T14:39:44.230Z,65.70
2018-12-24T14:42:14.104Z,66.72
2018-12-24T14:44:43.737Z,67.38
2018-12-24T14:47:13.378Z,67.63
2018-12-24T14:49:42.994Z,68.93
2018-12-24T14:52:12.641Z,70.01
2018-12-24T14:54:42.291Z,70.43
2018-12-24T14:57:12.304Z,70.91
2018-12-24T14:59:42.729Z,70.94
2018-12-24T15:02:12.386Z,70.81
2018-12-24T15:04:42.005Z,71.17
2018-12-24T15:07:11.643Z,71.36
2018-12-24T15:09:41.265Z,71.00
2018-12-24T15:12:10.916Z,71.33
2018-12-24T15:14:40.525Z,71.21
2018-12-24T15:17:10.183Z,71.85
2018-12-24T15:19:40.269Z,71.49
2018-12-24T15:22:09.918Z,71.83
2018-12-24T15:24:39.531Z,72.26
2018-12-24T15:27:09.180Z,72.04
2018-12-24T15:29:38.790Z,71.83
2018-12-24T15:32:08.404Z,71.31
2018-12-24T15:34:38.041Z,71.74
2018-12-24T15:37:07.668Z,71.37
2018-12-24T15:39:37.304Z,71.37
2018-12-24T15:42:06.941Z,70.54
2018-12-24T15:44:36.577Z,70.64
2018-12-24T15:47:06.206Z,70.66
2018-12-24T15:49:36.175Z,70.62
2018-12-24T15:52:05.798Z,70.57
2018-12-24T15:54:35.434Z,70.75
2018-12-24T15:57:05.049Z,70.63
2018-12-24T15:59:34.694Z,70.76
2018-12-24T16:02:04.309Z,70.61
2018-12-24T16:04:33.960Z,70.41
2018-12-24T16:07:03.577Z,69.64
2018-12-24T16:09:33.197Z,70.14
2018-12-24T16:12:02.985Z,69.97
2018-12-24T16:14:32.605Z,70.08
2018-12-24T16:17:02.285Z,69.78
2018-12-24T16:19:31.896Z,69.80
2018-12-24T16:22:01.535Z,69.25
2018-12-24T16:24:31.494Z,69.74
2018-12-24T16:27:01.740Z,69.62
2018-12-24T16:29:31.352Z,69.83
2018-12-24T16:32:01.014Z,69.75
2018-12-24T16:34:30.618Z,69.97
2018-12-24T16:37:00.551Z,69.99
2018-12-24T16:39:30.170Z,70.03
2018-12-24T16:41:59.841Z,69.80
2018-12-24T16:44:29.445Z,69.34
2018-12-24T16:46:59.499Z,69.59
2018-12-24T16:49:30.439Z,69.36
2018-12-24T16:52:00.045Z,69.62
2018-12-24T16:54:29.802Z,69.46
2018-12-24T16:57:00.400Z,69.43
2018-12-24T16:59:30.034Z,69.05
2018-12-24T17:01:59.638Z,69.03
2018-12-24T17:04:29.268Z,69.60
2018-12-24T17:06:59.217Z,69.70
2018-12-24T17:09:28.861Z,69.21
2018-12-24T17:11:58.478Z,69.05
2018-12-24T17:14:28.128Z,69.14
2018-12-24T17:16:58.052Z,68.76
2018-12-24T17:19:27.668Z,68.90
2018-12-24T17:21:57.299Z,69.09
2018-12-24T17:24:26.906Z,68.74
2018-12-24T17:26:56.895Z,69.11
2018-12-24T17:29:26.562Z,69.18
2018-12-24T17:31:56.221Z,69.54
2018-12-24T17:34:25.821Z,69.25
2018-12-24T17:36:55.468Z,69.12
2018-12-24T17:39:25.159Z,69.21
2018-12-24T17:41:54.847Z,68.63
2018-12-24T17:44:24.756Z,69.02
2018-12-24T17:46:54.405Z,69.63
2018-12-24T17:49:24.015Z,69.19
2018-12-24T17:51:53.985Z,69.11
2018-12-24T17:54:23.901Z,69.00
2018-12-24T17:56:53.532Z,68.61
2018-12-24T17:59:23.549Z,69.18
2018-12-24T18:01:53.226Z,69.34
2018-12-24T18:04:22.859Z,69.11
2018-12-24T18:06:52.463Z,69.22
2018-12-24T18:09:22.100Z,69.82
2018-12-24T18:11:51.714Z,69.68
2018-12-24T18:14:21.365Z,69.98
2018-12-24T18:16:50.978Z,70.41
2018-12-24T18:19:20.611Z,70.12
2018-12-24T18:21:50.586Z,69.92
2018-12-24T18:24:39.192Z,70.42
2018-12-24T18:27:08.802Z,70.11
2018-12-24T18:29:38.436Z,69.63
2018-12-24T18:32:08.093Z,70.29
2018-12-24T18:37:06.390Z,70.41
2018-12-24T18:39:36.221Z,69.94
2018-12-24T18:42:05.860Z,70.06
2018-12-24T18:44:35.465Z,70.11
2018-12-24T18:47:05.109Z,70.40
2018-12-24T18:49:34.718Z,70.21
2018-12-24T18:52:04.355Z,70.43
2018-12-24T18:54:33.970Z,70.28
2018-12-24T18:57:03.600Z,70.42
2018-12-24T18:59:33.213Z,70.12
2018-12-24T19:02:02.842Z,70.07
2018-12-24T19:04:34.119Z,70.01
2018-12-24T19:07:03.762Z,69.87
2018-12-24T19:09:33.370Z,69.89
2018-12-24T19:12:03.375Z,69.78
2018-12-24T19:14:33.064Z,69.50
2018-12-24T19:17:02.676Z,69.62
2018-12-24T19:19:32.306Z,70.04
2018-12-24T19:22:01.907Z,69.63
2018-12-24T19:24:50.507Z,69.85
2018-12-24T19:27:20.123Z,69.57
2018-12-24T19:29:49.785Z,70.00
2018-12-24T19:32:19.391Z,70.23
2018-12-24T19:35:07.997Z,70.37
2018-12-24T19:37:37.982Z,70.72
2018-12-24T19:40:07.648Z,71.21
2018-12-24T19:42:37.251Z,71.09
2018-12-24T19:45:07.192Z,71.02
2018-12-24T19:47:36.803Z,71.17
2018-12-24T19:50:06.760Z,71.38
2018-12-24T19:52:36.369Z,71.12
2018-12-24T19:55:06.013Z,71.27
2018-12-24T19:57:35.647Z,71.20
2018-12-24T20:00:05.320Z,71.25
2018-12-24T20:02:34.959Z,71.65
2018-12-24T20:05:04.570Z,71.42
2018-12-24T20:07:34.518Z,71.03
2018-12-24T20:10:04.173Z,70.83
2018-12-24T20:12:33.805Z,71.30
2018-12-24T20:15:03.901Z,71.19
2018-12-24T20:17:34.322Z,71.49
2018-12-24T20:20:04.409Z,71.33
2018-12-24T20:22:34.144Z,70.93
2018-12-24T20:25:04.236Z,70.60
2018-12-24T20:27:34.322Z,70.22
2018-12-24T20:30:04.100Z,69.96
2018-12-24T20:32:33.822Z,69.89
2018-12-24T20:35:03.562Z,69.52
2018-12-24T20:37:33.265Z,69.56
2018-12-24T20:40:03.004Z,69.47
2018-12-24T20:42:32.704Z,69.24
2018-12-24T20:45:02.426Z,69.45
2018-12-24T20:47:32.871Z,69.87
2018-12-24T20:50:02.602Z,69.90
2018-12-24T20:52:32.702Z,69.43
2018-12-24T20:55:02.741Z,69.30
2018-12-24T20:57:32.438Z,69.06
2018-12-24T21:00:02.170Z,68.97
2018-12-24T21:02:31.869Z,69.07
2018-12-24T21:05:01.684Z,69.50
2018-12-24T21:07:31.416Z,69.96
2018-12-24T21:10:01.120Z,70.12
2018-12-24T21:12:31.999Z,70.06
2018-12-24T21:15:02.020Z,69.70
2018-12-24T21:17:32.680Z,69.49
2018-12-24T21:20:02.442Z,69.89
2018-12-24T21:22:32.183Z,69.86
2018-12-24T21:25:02.954Z,69.60
2018-12-24T21:27:34.675Z,70.02
2018-12-24T21:33:13.597Z,70.26
2018-12-24T21:35:43.291Z,70.34
2018-12-24T21:38:12.952Z,70.46
2018-12-24T21:43:11.298Z,70.31
2018-12-24T21:45:41.394Z,70.50
2018-12-24T21:48:11.153Z,70.56
2018-12-24T21:53:30.987Z,70.35
2018-12-24T21:56:00.609Z,70.25
2018-12-24T21:58:30.260Z,70.15
2018-12-24T22:00:59.867Z,70.28
2018-12-24T22:03:29.474Z,70.51
2018-12-24T22:05:59.099Z,70.58
2018-12-24T22:08:28.703Z,70.97
2018-12-24T22:10:58.832Z,70.89
2018-12-24T22:13:28.441Z,71.14
2018-12-24T22:15:58.151Z,71.04
2018-12-24T22:18:32.223Z,71.08
2018-12-24T22:20:59.150Z,71.42
2018-12-24T22:23:28.751Z,70.85
2018-12-24T22:25:58.386Z,71.15
2018-12-24T22:28:27.988Z,71.36
2018-12-24T22:30:57.638Z,71.70
2018-12-24T22:33:27.235Z,71.57
2018-12-24T22:35:56.870Z,71.65
2018-12-24T22:38:26.473Z,71.96
2018-12-24T22:40:56.079Z,72.10
2018-12-24T22:43:25.700Z,72.37
2018-12-24T22:45:55.301Z,72.39
2018-12-24T22:48:24.934Z,72.14
2018-12-24T22:50:54.814Z,72.09
2018-12-24T22:53:43.490Z,71.86
2018-12-24T22:56:13.189Z,71.93
2018-12-24T22:58:42.995Z,71.80
2018-12-24T23:01:12.793Z,72.05
2018-12-24T23:03:42.536Z,72.01
2018-12-24T23:06:12.650Z,71.96
2018-12-24T23:08:42.825Z,72.25
2018-12-24T23:11:13.026Z,72.07
2018-12-24T23:13:42.780Z,71.94
2018-12-24T23:16:12.552Z,71.70
2018-12-24T23:18:49.314Z,71.30
2018-12-24T23:21:13.894Z,71.22
2018-12-24T23:23:43.619Z,71.08
2018-12-24T23:26:13.427Z,70.50
2018-12-24T23:28:43.178Z,70.29
2018-12-24T23:31:12.886Z,69.94
2018-12-24T23:33:42.652Z,69.71
2018-12-24T23:36:12.387Z,69.73
2018-12-24T23:38:42.102Z,69.86
2018-12-24T23:41:11.887Z,69.78
2018-12-24T23:43:41.584Z,69.69
2018-12-24T23:46:11.314Z,69.31
2018-12-24T23:48:41.391Z,68.73
2018-12-24T23:51:11.139Z,69.04
2018-12-24T23:53:41.057Z,68.48
2018-12-24T23:58:59.447Z,69.12
